sensor_id;sensor_type;location;lat;lon;timestamp;P1;durP1;ratioP1;P2;durP2;ratioP2
64932;SDS011;51446;53.850;10.662;2022-10-18T00:00:38;7.43;;;5.00;;
64932;SDS011;51446;53.850;10.662;2022-10-18T00:03:03;6.37;;;4.80;;
64932;SDS011;51446;53.850;10.662;2022-10-18T00:05:28;8.37;;;5.53;;
64932;SDS011;51446;53.850;10.662;2022-10-18T00:07:53;10.23;;;5.53;;
64932;SDS011;51446;53.850;10.662;2022-10-18T00:10:19;10.43;;;4.93;;
64932;SDS011;51446;53.850;10.662;2022-10-18T00:12:44;6.50;;;5.20;;
64932;SDS011;51446;53.850;10.662;2022-10-18T00:15:09;7.73;;;4.77;;
64932;SDS011;51446;53.850;10.662;2022-10-18T00:17:35;8.85;;;6.00;;
64932;SDS011;51446;53.850;10.662;2022-10-18T00:20:02;8.93;;;6.00;;
64932;SDS011;51446;53.850;10.662;2022-10-18T00:22:29;11.30;;;5.73;;
64932;SDS011;51446;53.850;10.662;2022-10-18T00:24:54;7.70;;;5.30;;
64932;SDS011;51446;53.850;10.662;2022-10-18T00:27:19;9.13;;;5.10;;
64932;SDS011;51446;53.850;10.662;2022-10-18T00:29:44;10.70;;;6.03;;
64932;SDS011;51446;53.850;10.662;2022-10-18T00:32:10;9.52;;;6.63;;
64932;SDS011;51446;53.850;10.662;2022-10-18T00:34:36;10.23;;;6.57;;
64932;SDS011;51446;53.850;10.662;2022-10-18T00:37:03;10.48;;;6.75;;
64932;SDS011;51446;53.850;10.662;2022-10-18T00:39:28;8.37;;;6.13;;
64932;SDS011;51446;53.850;10.662;2022-10-18T00:41:54;15.20;;;7.03;;
64932;SDS011;51446;53.850;10.662;2022-10-18T00:46:45;13.30;;;7.47;;
64932;SDS011;51446;53.850;10.662;2022-10-18T00:51:50;13.82;;;8.23;;
64932;SDS011;51446;53.850;10.662;2022-10-18T00:54:22;13.90;;;8.73;;
64932;SDS011;51446;53.850;10.662;2022-10-18T00:56:48;14.60;;;8.07;;
64932;SDS011;51446;53.850;10.662;2022-10-18T00:59:15;12.57;;;8.15;;
64932;SDS011;51446;53.850;10.662;2022-10-18T01:01:42;17.30;;;7.95;;
64932;SDS011;51446;53.850;10.662;2022-10-18T01:04:07;13.43;;;8.68;;
64932;SDS011;51446;53.850;10.662;2022-10-18T01:06:33;11.77;;;7.90;;
64932;SDS011;51446;53.850;10.662;2022-10-18T01:12:02;18.33;;;10.10;;
64932;SDS011;51446;53.850;10.662;2022-10-18T01:15:23;18.33;;;9.55;;
64932;SDS011;51446;53.850;10.662;2022-10-18T01:18:07;16.45;;;9.07;;
64932;SDS011;51446;53.850;10.662;2022-10-18T01:24:17;20.17;;;10.38;;
64932;SDS011;51446;53.850;10.662;2022-10-18T01:32:38;18.73;;;10.95;;
64932;SDS011;51446;53.850;10.662;2022-10-18T01:35:13;18.60;;;11.32;;
64932;SDS011;51446;53.850;10.662;2022-10-18T01:37:42;20.70;;;11.98;;
64932;SDS011;51446;53.850;10.662;2022-10-18T01:40:12;20.47;;;12.17;;
64932;SDS011;51446;53.850;10.662;2022-10-18T01:42:41;30.15;;;12.60;;
64932;SDS011;51446;53.850;10.662;2022-10-18T01:45:09;28.05;;;12.57;;
64932;SDS011;51446;53.850;10.662;2022-10-18T01:47:37;25.25;;;12.55;;
64932;SDS011;51446;53.850;10.662;2022-10-18T01:50:04;21.17;;;13.32;;
64932;SDS011;51446;53.850;10.662;2022-10-18T01:52:30;27.93;;;12.70;;
64932;SDS011;51446;53.850;10.662;2022-10-18T01:54:56;25.20;;;13.27;;
64932;SDS011;51446;53.850;10.662;2022-10-18T02:00:09;20.38;;;13.50;;
64932;SDS011;51446;53.850;10.662;2022-10-18T02:02:40;29.27;;;13.48;;
64932;SDS011;51446;53.850;10.662;2022-10-18T02:05:28;26.63;;;13.50;;
64932;SDS011;51446;53.850;10.662;2022-10-18T02:11:04;23.45;;;14.02;;
64932;SDS011;51446;53.850;10.662;2022-10-18T02:13:36;23.52;;;13.93;;
64932;SDS011;51446;53.850;10.662;2022-10-18T02:16:06;21.60;;;13.02;;
64932;SDS011;51446;53.850;10.662;2022-10-18T02:18:36;30.38;;;14.40;;
64932;SDS011;51446;53.850;10.662;2022-10-18T02:21:06;21.97;;;14.10;;
64932;SDS011;51446;53.850;10.662;2022-10-18T02:23:34;23.25;;;13.52;;
64932;SDS011;51446;53.850;10.662;2022-10-18T02:26:02;24.63;;;13.48;;
64932;SDS011;51446;53.850;10.662;2022-10-18T02:28:27;29.93;;;13.33;;
64932;SDS011;51446;53.850;10.662;2022-10-18T02:30:57;21.95;;;12.27;;
64932;SDS011;51446;53.850;10.662;2022-10-18T02:33:44;26.23;;;13.35;;
64932;SDS011;51446;53.850;10.662;2022-10-18T02:36:18;28.33;;;14.25;;
64932;SDS011;51446;53.850;10.662;2022-10-18T02:38:51;27.37;;;13.47;;
64932;SDS011;51446;53.850;10.662;2022-10-18T02:41:24;28.15;;;14.48;;
64932;SDS011;51446;53.850;10.662;2022-10-18T02:43:51;27.85;;;14.50;;
64932;SDS011;51446;53.850;10.662;2022-10-18T02:46:16;28.00;;;14.33;;
64932;SDS011;51446;53.850;10.662;2022-10-18T02:48:42;30.75;;;13.85;;
64932;SDS011;51446;53.850;10.662;2022-10-18T02:51:07;27.10;;;13.43;;
64932;SDS011;51446;53.850;10.662;2022-10-18T02:53:32;24.83;;;12.97;;
64932;SDS011;51446;53.850;10.662;2022-10-18T02:55:57;26.73;;;13.80;;
64932;SDS011;51446;53.850;10.662;2022-10-18T02:58:23;25.93;;;13.13;;
64932;SDS011;51446;53.850;10.662;2022-10-18T03:00:48;33.10;;;14.90;;
64932;SDS011;51446;53.850;10.662;2022-10-18T03:03:14;26.95;;;14.50;;
64932;SDS011;51446;53.850;10.662;2022-10-18T03:05:40;33.30;;;14.90;;
64932;SDS011;51446;53.850;10.662;2022-10-18T03:08:05;29.80;;;13.90;;
64932;SDS011;51446;53.850;10.662;2022-10-18T03:10:30;20.77;;;12.30;;
64932;SDS011;51446;53.850;10.662;2022-10-18T03:12:55;22.60;;;12.47;;
64932;SDS011;51446;53.850;10.662;2022-10-18T03:15:21;26.33;;;13.00;;
64932;SDS011;51446;53.850;10.662;2022-10-18T03:17:46;24.73;;;13.20;;
64932;SDS011;51446;53.850;10.662;2022-10-18T03:20:11;23.03;;;11.90;;
64932;SDS011;51446;53.850;10.662;2022-10-18T03:22:37;33.40;;;14.07;;
64932;SDS011;51446;53.850;10.662;2022-10-18T03:25:03;31.20;;;14.47;;
64932;SDS011;51446;53.850;10.662;2022-10-18T03:27:28;23.23;;;13.10;;
64932;SDS011;51446;53.850;10.662;2022-10-18T03:29:53;24.37;;;13.37;;
64932;SDS011;51446;53.850;10.662;2022-10-18T03:32:19;24.13;;;12.57;;
64932;SDS011;51446;53.850;10.662;2022-10-18T03:34:44;18.93;;;12.10;;
64932;SDS011;51446;53.850;10.662;2022-10-18T03:37:09;31.37;;;14.47;;
64932;SDS011;51446;53.850;10.662;2022-10-18T03:39:34;28.47;;;14.23;;
64932;SDS011;51446;53.850;10.662;2022-10-18T03:41:59;24.70;;;13.53;;
64932;SDS011;51446;53.850;10.662;2022-10-18T03:44:25;29.20;;;14.47;;
64932;SDS011;51446;53.850;10.662;2022-10-18T03:46:50;30.57;;;15.00;;
64932;SDS011;51446;53.850;10.662;2022-10-18T03:49:15;27.10;;;14.30;;
64932;SDS011;51446;53.850;10.662;2022-10-18T03:51:40;28.47;;;14.43;;
64932;SDS011;51446;53.850;10.662;2022-10-18T03:54:06;27.40;;;14.40;;
64932;SDS011;51446;53.850;10.662;2022-10-18T03:56:31;26.30;;;14.57;;
64932;SDS011;51446;53.850;10.662;2022-10-18T03:58:56;27.20;;;15.73;;
64932;SDS011;51446;53.850;10.662;2022-10-18T04:01:22;32.23;;;15.70;;
64932;SDS011;51446;53.850;10.662;2022-10-18T04:03:47;32.45;;;16.08;;
64932;SDS011;51446;53.850;10.662;2022-10-18T04:06:13;29.40;;;15.00;;
64932;SDS011;51446;53.850;10.662;2022-10-18T04:08:38;29.73;;;16.00;;
64932;SDS011;51446;53.850;10.662;2022-10-18T04:11:04;35.03;;;16.27;;
64932;SDS011;51446;53.850;10.662;2022-10-18T04:13:32;40.25;;;16.90;;
64932;SDS011;51446;53.850;10.662;2022-10-18T04:15:58;30.70;;;15.57;;
64932;SDS011;51446;53.850;10.662;2022-10-18T04:18:24;42.13;;;17.23;;
64932;SDS011;51446;53.850;10.662;2022-10-18T04:20:49;34.57;;;16.23;;
64932;SDS011;51446;53.850;10.662;2022-10-18T04:23:14;35.10;;;16.73;;
64932;SDS011;51446;53.850;10.662;2022-10-18T04:25:39;42.25;;;18.88;;
64932;SDS011;51446;53.850;10.662;2022-10-18T04:28:05;39.50;;;18.58;;
64932;SDS011;51446;53.850;10.662;2022-10-18T04:30:30;37.22;;;18.85;;
64932;SDS011;51446;53.850;10.662;2022-10-18T04:32:55;35.17;;;17.53;;
64932;SDS011;51446;53.850;10.662;2022-10-18T04:35:20;39.43;;;17.60;;
64932;SDS011;51446;53.850;10.662;2022-10-18T04:37:48;32.40;;;16.33;;
64932;SDS011;51446;53.850;10.662;2022-10-18T04:40:13;39.90;;;18.65;;
64932;SDS011;51446;53.850;10.662;2022-10-18T04:42:39;47.30;;;18.93;;
64932;SDS011;51446;53.850;10.662;2022-10-18T04:45:04;39.60;;;18.60;;
64932;SDS011;51446;53.850;10.662;2022-10-18T04:47:30;38.37;;;18.13;;
64932;SDS011;51446;53.850;10.662;2022-10-18T04:49:55;37.90;;;18.13;;
64932;SDS011;51446;53.850;10.662;2022-10-18T04:52:20;36.53;;;17.87;;
64932;SDS011;51446;53.850;10.662;2022-10-18T04:54:45;37.20;;;18.70;;
64932;SDS011;51446;53.850;10.662;2022-10-18T04:57:11;37.93;;;19.33;;
64932;SDS011;51446;53.850;10.662;2022-10-18T04:59:36;37.83;;;19.07;;
64932;SDS011;51446;53.850;10.662;2022-10-18T05:02:02;39.03;;;17.30;;
64932;SDS011;51446;53.850;10.662;2022-10-18T05:04:28;36.58;;;17.55;;
64932;SDS011;51446;53.850;10.662;2022-10-18T05:06:53;38.73;;;17.73;;
64932;SDS011;51446;53.850;10.662;2022-10-18T05:09:18;34.77;;;17.77;;
64932;SDS011;51446;53.850;10.662;2022-10-18T05:11:46;41.47;;;17.95;;
64932;SDS011;51446;53.850;10.662;2022-10-18T05:14:11;42.97;;;17.90;;
64932;SDS011;51446;53.850;10.662;2022-10-18T05:16:36;37.27;;;18.47;;
64932;SDS011;51446;53.850;10.662;2022-10-18T05:19:02;34.40;;;17.17;;
64932;SDS011;51446;53.850;10.662;2022-10-18T05:21:29;33.22;;;17.95;;
64932;SDS011;51446;53.850;10.662;2022-10-18T05:23:54;37.37;;;17.73;;
64932;SDS011;51446;53.850;10.662;2022-10-18T05:26:20;38.57;;;18.43;;
64932;SDS011;51446;53.850;10.662;2022-10-18T05:28:45;29.45;;;16.58;;
64932;SDS011;51446;53.850;10.662;2022-10-18T05:31:11;31.50;;;17.52;;
64932;SDS011;51446;53.850;10.662;2022-10-18T05:33:36;42.00;;;17.37;;
64932;SDS011;51446;53.850;10.662;2022-10-18T05:36:02;30.67;;;17.57;;
64932;SDS011;51446;53.850;10.662;2022-10-18T05:38:28;34.53;;;15.77;;
64932;SDS011;51446;53.850;10.662;2022-10-18T05:40:56;39.75;;;17.77;;
64932;SDS011;51446;53.850;10.662;2022-10-18T05:43:26;35.93;;;18.17;;
64932;SDS011;51446;53.850;10.662;2022-10-18T05:45:52;39.00;;;18.58;;
64932;SDS011;51446;53.850;10.662;2022-10-18T05:48:18;46.67;;;19.03;;
64932;SDS011;51446;53.850;10.662;2022-10-18T05:50:43;46.63;;;19.97;;
64932;SDS011;51446;53.850;10.662;2022-10-18T05:53:08;50.97;;;19.83;;
64932;SDS011;51446;53.850;10.662;2022-10-18T05:55:33;45.17;;;19.07;;
64932;SDS011;51446;53.850;10.662;2022-10-18T05:57:59;44.50;;;18.98;;
64932;SDS011;51446;53.850;10.662;2022-10-18T06:00:24;48.93;;;19.90;;
64932;SDS011;51446;53.850;10.662;2022-10-18T06:02:49;51.30;;;18.80;;
64932;SDS011;51446;53.850;10.662;2022-10-18T06:05:15;46.17;;;19.60;;
64932;SDS011;51446;53.850;10.662;2022-10-18T06:07:40;48.13;;;18.77;;
64932;SDS011;51446;53.850;10.662;2022-10-18T06:10:05;48.33;;;19.13;;
64932;SDS011;51446;53.850;10.662;2022-10-18T06:12:31;41.88;;;17.50;;
64932;SDS011;51446;53.850;10.662;2022-10-18T06:14:56;40.60;;;18.20;;
64932;SDS011;51446;53.850;10.662;2022-10-18T06:17:21;39.87;;;17.73;;
64932;SDS011;51446;53.850;10.662;2022-10-18T06:19:47;41.80;;;18.07;;
64932;SDS011;51446;53.850;10.662;2022-10-18T06:22:12;40.67;;;16.50;;
64932;SDS011;51446;53.850;10.662;2022-10-18T06:24:38;45.23;;;18.20;;
64932;SDS011;51446;53.850;10.662;2022-10-18T06:27:03;40.93;;;17.17;;
64932;SDS011;51446;53.850;10.662;2022-10-18T06:29:33;38.85;;;17.52;;
64932;SDS011;51446;53.850;10.662;2022-10-18T06:32:01;51.53;;;18.58;;
64932;SDS011;51446;53.850;10.662;2022-10-18T06:34:27;36.93;;;17.53;;
64932;SDS011;51446;53.850;10.662;2022-10-18T06:36:52;40.10;;;18.00;;
64932;SDS011;51446;53.850;10.662;2022-10-18T06:39:17;44.08;;;17.25;;
64932;SDS011;51446;53.850;10.662;2022-10-18T06:41:43;37.53;;;16.87;;
64932;SDS011;51446;53.850;10.662;2022-10-18T06:44:08;39.33;;;16.97;;
64932;SDS011;51446;53.850;10.662;2022-10-18T06:46:41;41.67;;;16.98;;
64932;SDS011;51446;53.850;10.662;2022-10-18T06:49:06;38.90;;;17.60;;
64932;SDS011;51446;53.850;10.662;2022-10-18T06:51:32;37.42;;;17.17;;
64932;SDS011;51446;53.850;10.662;2022-10-18T06:53:57;35.00;;;16.33;;
64932;SDS011;51446;53.850;10.662;2022-10-18T06:56:22;33.13;;;15.57;;
64932;SDS011;51446;53.850;10.662;2022-10-18T06:58:47;35.50;;;15.10;;
64932;SDS011;51446;53.850;10.662;2022-10-18T07:01:14;32.57;;;14.97;;
64932;SDS011;51446;53.850;10.662;2022-10-18T07:03:40;32.05;;;14.82;;
64932;SDS011;51446;53.850;10.662;2022-10-18T07:06:07;31.07;;;14.80;;
64932;SDS011;51446;53.850;10.662;2022-10-18T07:08:35;29.80;;;14.43;;
64932;SDS011;51446;53.850;10.662;2022-10-18T07:11:01;34.60;;;15.30;;
64932;SDS011;51446;53.850;10.662;2022-10-18T07:13:27;30.80;;;13.77;;
64932;SDS011;51446;53.850;10.662;2022-10-18T07:16:01;26.38;;;14.20;;
64932;SDS011;51446;53.850;10.662;2022-10-18T07:18:31;32.10;;;14.75;;
64932;SDS011;51446;53.850;10.662;2022-10-18T07:20:59;29.10;;;14.18;;
64932;SDS011;51446;53.850;10.662;2022-10-18T07:23:26;29.65;;;13.73;;
64932;SDS011;51446;53.850;10.662;2022-10-18T07:25:51;25.03;;;13.37;;
64932;SDS011;51446;53.850;10.662;2022-10-18T07:28:17;25.17;;;12.13;;
64932;SDS011;51446;53.850;10.662;2022-10-18T07:30:42;25.03;;;12.83;;
64932;SDS011;51446;53.850;10.662;2022-10-18T07:33:07;27.50;;;13.67;;
64932;SDS011;51446;53.850;10.662;2022-10-18T07:35:32;29.60;;;13.17;;
64932;SDS011;51446;53.850;10.662;2022-10-18T07:37:58;23.27;;;11.93;;
64932;SDS011;51446;53.850;10.662;2022-10-18T07:40:23;29.97;;;12.40;;
64932;SDS011;51446;53.850;10.662;2022-10-18T07:42:48;23.00;;;12.50;;
64932;SDS011;51446;53.850;10.662;2022-10-18T07:45:13;25.97;;;12.80;;
64932;SDS011;51446;53.850;10.662;2022-10-18T07:47:39;27.20;;;12.73;;
64932;SDS011;51446;53.850;10.662;2022-10-18T07:50:04;26.80;;;12.53;;
64932;SDS011;51446;53.850;10.662;2022-10-18T07:52:30;25.30;;;12.90;;
64932;SDS011;51446;53.850;10.662;2022-10-18T07:54:55;30.53;;;13.40;;
64932;SDS011;51446;53.850;10.662;2022-10-18T07:57:20;27.30;;;13.00;;
64932;SDS011;51446;53.850;10.662;2022-10-18T07:59:47;22.92;;;13.48;;
64932;SDS011;51446;53.850;10.662;2022-10-18T08:02:16;30.27;;;12.63;;
64932;SDS011;51446;53.850;10.662;2022-10-18T08:04:41;26.40;;;13.23;;
64932;SDS011;51446;53.850;10.662;2022-10-18T08:07:06;27.57;;;13.67;;
64932;SDS011;51446;53.850;10.662;2022-10-18T08:09:31;32.60;;;15.27;;
64932;SDS011;51446;53.850;10.662;2022-10-18T08:11:57;24.30;;;12.90;;
64932;SDS011;51446;53.850;10.662;2022-10-18T08:14:22;25.93;;;13.73;;
64932;SDS011;51446;53.850;10.662;2022-10-18T08:16:47;25.77;;;13.73;;
64932;SDS011;51446;53.850;10.662;2022-10-18T08:19:12;26.00;;;13.60;;
64932;SDS011;51446;53.850;10.662;2022-10-18T08:21:38;27.43;;;13.57;;
64932;SDS011;51446;53.850;10.662;2022-10-18T08:24:03;25.47;;;13.20;;
64932;SDS011;51446;53.850;10.662;2022-10-18T08:26:29;22.30;;;13.00;;
64932;SDS011;51446;53.850;10.662;2022-10-18T08:28:54;30.80;;;13.33;;
64932;SDS011;51446;53.850;10.662;2022-10-18T08:31:19;24.37;;;12.27;;
64932;SDS011;51446;53.850;10.662;2022-10-18T08:33:45;23.30;;;12.17;;
64932;SDS011;51446;53.850;10.662;2022-10-18T08:36:12;22.67;;;11.23;;
64932;SDS011;51446;53.850;10.662;2022-10-18T08:38:39;26.63;;;11.50;;
64932;SDS011;51446;53.850;10.662;2022-10-18T08:44:05;22.73;;;11.77;;
64932;SDS011;51446;53.850;10.662;2022-10-18T08:46:38;22.15;;;11.18;;
64932;SDS011;51446;53.850;10.662;2022-10-18T08:49:10;21.42;;;10.70;;
64932;SDS011;51446;53.850;10.662;2022-10-18T08:51:44;21.73;;;11.07;;
64932;SDS011;51446;53.850;10.662;2022-10-18T08:54:17;22.67;;;10.63;;
64932;SDS011;51446;53.850;10.662;2022-10-18T08:56:55;20.27;;;10.80;;
64932;SDS011;51446;53.850;10.662;2022-10-18T08:59:23;24.70;;;11.65;;
64932;SDS011;51446;53.850;10.662;2022-10-18T09:04:38;21.67;;;9.90;;
64932;SDS011;51446;53.850;10.662;2022-10-18T09:13:30;18.52;;;9.35;;
64932;SDS011;51446;53.850;10.662;2022-10-18T09:16:15;20.88;;;9.07;;
64932;SDS011;51446;53.850;10.662;2022-10-18T09:19:02;17.92;;;9.02;;
64932;SDS011;51446;53.850;10.662;2022-10-18T09:21:53;19.03;;;10.00;;
64932;SDS011;51446;53.850;10.662;2022-10-18T09:24:33;17.25;;;9.43;;
64932;SDS011;51446;53.850;10.662;2022-10-18T09:27:13;20.85;;;9.02;;
64932;SDS011;51446;53.850;10.662;2022-10-18T09:35:19;18.17;;;8.37;;
64932;SDS011;51446;53.850;10.662;2022-10-18T09:37:48;18.98;;;8.25;;
64932;SDS011;51446;53.850;10.662;2022-10-18T09:40:16;18.50;;;8.27;;
64932;SDS011;51446;53.850;10.662;2022-10-18T09:42:47;15.13;;;7.60;;
64932;SDS011;51446;53.850;10.662;2022-10-18T09:45:28;13.25;;;6.40;;
64932;SDS011;51446;53.850;10.662;2022-10-18T09:53:41;14.35;;;5.95;;
64932;SDS011;51446;53.850;10.662;2022-10-18T09:56:20;16.55;;;6.35;;
64932;SDS011;51446;53.850;10.662;2022-10-18T09:58:54;13.05;;;5.65;;
64932;SDS011;51446;53.850;10.662;2022-10-18T10:01:27;13.07;;;5.40;;
64932;SDS011;51446;53.850;10.662;2022-10-18T10:03:56;13.80;;;6.28;;
64932;SDS011;51446;53.850;10.662;2022-10-18T10:06:28;17.73;;;7.00;;
64932;SDS011;51446;53.850;10.662;2022-10-18T10:11:44;13.95;;;6.53;;
64932;SDS011;51446;53.850;10.662;2022-10-18T10:14:15;13.27;;;6.37;;
64932;SDS011;51446;53.850;10.662;2022-10-18T10:17:00;11.77;;;6.20;;
64932;SDS011;51446;53.850;10.662;2022-10-18T10:19:29;13.13;;;6.10;;
64932;SDS011;51446;53.850;10.662;2022-10-18T10:22:15;16.02;;;6.47;;
64932;SDS011;51446;53.850;10.662;2022-10-18T10:24:55;15.55;;;6.00;;
64932;SDS011;51446;53.850;10.662;2022-10-18T10:29:57;13.70;;;5.80;;
64932;SDS011;51446;53.850;10.662;2022-10-18T10:32:25;16.03;;;5.57;;
64932;SDS011;51446;53.850;10.662;2022-10-18T10:34:53;10.50;;;4.82;;
64932;SDS011;51446;53.850;10.662;2022-10-18T10:45:22;13.13;;;5.00;;
64932;SDS011;51446;53.850;10.662;2022-10-18T10:47:51;13.88;;;4.28;;
64932;SDS011;51446;53.850;10.662;2022-10-18T10:50:25;14.13;;;4.03;;
64932;SDS011;51446;53.850;10.662;2022-10-18T10:52:52;13.68;;;4.32;;
64932;SDS011;51446;53.850;10.662;2022-10-18T10:55:19;11.95;;;4.30;;
64932;SDS011;51446;53.850;10.662;2022-10-18T10:57:48;11.30;;;4.10;;
64932;SDS011;51446;53.850;10.662;2022-10-18T11:00:34;9.80;;;4.00;;
64932;SDS011;51446;53.850;10.662;2022-10-18T11:03:10;10.80;;;3.50;;
64932;SDS011;51446;53.850;10.662;2022-10-18T11:05:49;12.57;;;3.85;;
64932;SDS011;51446;53.850;10.662;2022-10-18T11:08:18;13.70;;;3.58;;
64932;SDS011;51446;53.850;10.662;2022-10-18T11:13:42;11.88;;;3.58;;
64932;SDS011;51446;53.850;10.662;2022-10-18T11:16:15;9.97;;;3.63;;
64932;SDS011;51446;53.850;10.662;2022-10-18T11:18:47;9.52;;;3.13;;
64932;SDS011;51446;53.850;10.662;2022-10-18T11:21:17;11.15;;;3.15;;
64932;SDS011;51446;53.850;10.662;2022-10-18T11:23:47;12.43;;;3.22;;
64932;SDS011;51446;53.850;10.662;2022-10-18T11:26:20;11.90;;;2.80;;
64932;SDS011;51446;53.850;10.662;2022-10-18T11:29:18;12.57;;;2.95;;
64932;SDS011;51446;53.850;10.662;2022-10-18T11:40:40;9.15;;;2.80;;
64932;SDS011;51446;53.850;10.662;2022-10-18T11:43:18;11.48;;;2.50;;
64932;SDS011;51446;53.850;10.662;2022-10-18T11:45:55;7.07;;;2.30;;
64932;SDS011;51446;53.850;10.662;2022-10-18T11:51:20;16.02;;;2.08;;
64932;SDS011;51446;53.850;10.662;2022-10-18T11:57:13;10.18;;;2.30;;
64932;SDS011;51446;53.850;10.662;2022-10-18T12:02:36;6.43;;;2.20;;
64932;SDS011;51446;53.850;10.662;2022-10-18T12:05:04;9.43;;;2.00;;
64932;SDS011;51446;53.850;10.662;2022-10-18T12:07:33;9.15;;;1.77;;
64932;SDS011;51446;53.850;10.662;2022-10-18T12:10:03;9.35;;;2.38;;
64932;SDS011;51446;53.850;10.662;2022-10-18T12:12:41;10.10;;;1.93;;
64932;SDS011;51446;53.850;10.662;2022-10-18T12:15:17;8.75;;;2.42;;
64932;SDS011;51446;53.850;10.662;2022-10-18T12:17:49;9.18;;;2.30;;
64932;SDS011;51446;53.850;10.662;2022-10-18T12:22:59;8.07;;;2.05;;
64932;SDS011;51446;53.850;10.662;2022-10-18T12:25:28;8.97;;;1.70;;
64932;SDS011;51446;53.850;10.662;2022-10-18T12:28:20;10.70;;;2.13;;
64932;SDS011;51446;53.850;10.662;2022-10-18T12:33:48;8.77;;;1.77;;
64932;SDS011;51446;53.850;10.662;2022-10-18T12:38:51;8.77;;;2.00;;
64932;SDS011;51446;53.850;10.662;2022-10-18T12:41:27;7.78;;;2.22;;
64932;SDS011;51446;53.850;10.662;2022-10-18T12:43:56;9.65;;;2.17;;
64932;SDS011;51446;53.850;10.662;2022-10-18T12:46:26;9.10;;;2.15;;
64932;SDS011;51446;53.850;10.662;2022-10-18T12:49:08;9.27;;;2.15;;
64932;SDS011;51446;53.850;10.662;2022-10-18T12:51:38;11.53;;;2.30;;
64932;SDS011;51446;53.850;10.662;2022-10-18T12:54:15;10.82;;;2.35;;
64932;SDS011;51446;53.850;10.662;2022-10-18T12:56:43;12.45;;;2.45;;
64932;SDS011;51446;53.850;10.662;2022-10-18T13:09:21;9.20;;;2.00;;
64932;SDS011;51446;53.850;10.662;2022-10-18T13:11:48;8.25;;;1.83;;
64932;SDS011;51446;53.850;10.662;2022-10-18T13:14:26;8.88;;;1.85;;
64932;SDS011;51446;53.850;10.662;2022-10-18T13:22:26;11.35;;;2.13;;
64932;SDS011;51446;53.850;10.662;2022-10-18T13:30:47;7.45;;;1.80;;
64932;SDS011;51446;53.850;10.662;2022-10-18T13:35:56;12.25;;;1.80;;
64932;SDS011;51446;53.850;10.662;2022-10-18T13:38:40;14.85;;;1.98;;
64932;SDS011;51446;53.850;10.662;2022-10-18T13:51:43;12.45;;;2.05;;
64932;SDS011;51446;53.850;10.662;2022-10-18T13:54:40;8.57;;;1.77;;
64932;SDS011;51446;53.850;10.662;2022-10-18T14:06:06;9.50;;;1.90;;
64932;SDS011;51446;53.850;10.662;2022-10-18T14:13:56;12.27;;;1.60;;
64932;SDS011;51446;53.850;10.662;2022-10-18T14:16:37;6.23;;;1.80;;
64932;SDS011;51446;53.850;10.662;2022-10-18T14:19:13;7.60;;;1.80;;
64932;SDS011;51446;53.850;10.662;2022-10-18T14:21:46;5.38;;;1.90;;
64932;SDS011;51446;53.850;10.662;2022-10-18T14:24:23;9.00;;;1.98;;
64932;SDS011;51446;53.850;10.662;2022-10-18T14:29:36;12.80;;;2.33;;
64932;SDS011;51446;53.850;10.662;2022-10-18T14:32:02;8.88;;;1.70;;
64932;SDS011;51446;53.850;10.662;2022-10-18T14:34:33;6.07;;;2.05;;
64932;SDS011;51446;53.850;10.662;2022-10-18T14:36:58;9.03;;;2.00;;
64932;SDS011;51446;53.850;10.662;2022-10-18T14:39:25;11.77;;;2.43;;
64932;SDS011;51446;53.850;10.662;2022-10-18T14:41:55;7.15;;;2.08;;
64932;SDS011;51446;53.850;10.662;2022-10-18T14:44:28;11.82;;;3.00;;
64932;SDS011;51446;53.850;10.662;2022-10-18T14:46:59;13.13;;;2.85;;
64932;SDS011;51446;53.850;10.662;2022-10-18T14:49:26;9.07;;;1.92;;
64932;SDS011;51446;53.850;10.662;2022-10-18T14:51:52;7.77;;;2.00;;
64932;SDS011;51446;53.850;10.662;2022-10-18T14:54:30;6.47;;;1.60;;
64932;SDS011;51446;53.850;10.662;2022-10-18T14:56:57;10.00;;;1.70;;
64932;SDS011;51446;53.850;10.662;2022-10-18T14:59:27;13.07;;;1.77;;
64932;SDS011;51446;53.850;10.662;2022-10-18T15:01:58;8.13;;;2.88;;
64932;SDS011;51446;53.850;10.662;2022-10-18T15:04:24;7.45;;;2.20;;
64932;SDS011;51446;53.850;10.662;2022-10-18T15:06:56;10.85;;;1.88;;
64932;SDS011;51446;53.850;10.662;2022-10-18T15:09:23;7.75;;;2.55;;
64932;SDS011;51446;53.850;10.662;2022-10-18T15:11:50;9.77;;;1.80;;
64932;SDS011;51446;53.850;10.662;2022-10-18T15:14:17;6.70;;;1.75;;
64932;SDS011;51446;53.850;10.662;2022-10-18T15:16:44;9.57;;;1.90;;
64932;SDS011;51446;53.850;10.662;2022-10-18T15:21:48;9.83;;;2.17;;
64932;SDS011;51446;53.850;10.662;2022-10-18T15:24:40;7.50;;;2.10;;
64932;SDS011;51446;53.850;10.662;2022-10-18T15:29:55;5.43;;;1.60;;
64932;SDS011;51446;53.850;10.662;2022-10-18T15:32:24;9.47;;;2.00;;
64932;SDS011;51446;53.850;10.662;2022-10-18T15:34:52;9.18;;;2.00;;
64932;SDS011;51446;53.850;10.662;2022-10-18T15:37:26;6.75;;;1.25;;
64932;SDS011;51446;53.850;10.662;2022-10-18T15:43:00;4.93;;;1.33;;
64932;SDS011;51446;53.850;10.662;2022-10-18T15:45:31;9.63;;;1.90;;
64932;SDS011;51446;53.850;10.662;2022-10-18T15:53:21;9.35;;;1.60;;
64932;SDS011;51446;53.850;10.662;2022-10-18T15:58:37;11.27;;;4.22;;
64932;SDS011;51446;53.850;10.662;2022-10-18T16:01:03;12.15;;;2.80;;
64932;SDS011;51446;53.850;10.662;2022-10-18T16:03:33;11.75;;;3.20;;
64932;SDS011;51446;53.850;10.662;2022-10-18T16:06:04;9.25;;;2.10;;
64932;SDS011;51446;53.850;10.662;2022-10-18T16:08:31;7.47;;;2.13;;
64932;SDS011;51446;53.850;10.662;2022-10-18T16:11:00;10.35;;;2.15;;
64932;SDS011;51446;53.850;10.662;2022-10-18T16:13:26;13.13;;;2.47;;
64932;SDS011;51446;53.850;10.662;2022-10-18T16:15:51;8.82;;;1.98;;
64932;SDS011;51446;53.850;10.662;2022-10-18T16:18:19;9.55;;;2.10;;
64932;SDS011;51446;53.850;10.662;2022-10-18T16:20:45;8.13;;;1.40;;
64932;SDS011;51446;53.850;10.662;2022-10-18T16:23:15;9.25;;;1.90;;
64932;SDS011;51446;53.850;10.662;2022-10-18T16:25:48;9.40;;;2.03;;
64932;SDS011;51446;53.850;10.662;2022-10-18T16:28:18;9.57;;;1.98;;
64932;SDS011;51446;53.850;10.662;2022-10-18T16:30:47;11.60;;;2.10;;
64932;SDS011;51446;53.850;10.662;2022-10-18T16:33:18;13.97;;;2.00;;
64932;SDS011;51446;53.850;10.662;2022-10-18T16:35:43;17.07;;;1.67;;
64932;SDS011;51446;53.850;10.662;2022-10-18T16:38:19;13.87;;;1.87;;
64932;SDS011;51446;53.850;10.662;2022-10-18T16:40:48;8.37;;;1.60;;
64932;SDS011;51446;53.850;10.662;2022-10-18T16:43:13;10.17;;;1.90;;
64932;SDS011;51446;53.850;10.662;2022-10-18T16:45:38;9.13;;;1.73;;
64932;SDS011;51446;53.850;10.662;2022-10-18T16:48:04;10.85;;;1.80;;
64932;SDS011;51446;53.850;10.662;2022-10-18T16:50:30;7.13;;;1.80;;
64932;SDS011;51446;53.850;10.662;2022-10-18T16:52:55;10.17;;;2.10;;
64932;SDS011;51446;53.850;10.662;2022-10-18T16:55:20;6.10;;;1.83;;
64932;SDS011;51446;53.850;10.662;2022-10-18T16:57:48;7.80;;;2.22;;
64932;SDS011;51446;53.850;10.662;2022-10-18T17:00:16;7.38;;;3.10;;
64932;SDS011;51446;53.850;10.662;2022-10-18T17:02:43;10.10;;;2.40;;
64932;SDS011;51446;53.850;10.662;2022-10-18T17:05:08;10.40;;;2.20;;